Dry Creek, Mississippi
Current Conditions -  °F | °C
As of 7:35 PM on Thursday 27 Nov 2014 (Local Time) from KPIB Reporting Station
Clear Clear  
Wind Chill: 37°   Ceiling: Unl
Heat Index: 41°   Visibility: 10mi
Dew Point: 28°   Wind: 6mph
Humidity: 61%   Direction: 360°N
Pressure: 30.45"   Gusts: NA
Location:  31.6692°N, 89.543°W
Report Text: KPIB 280135Z AUTO 36005KT 10SM CLR 05/M02 A3045 RMK AO1
Loading
Personal Weather Stations






























Interactive Weather Map New forecast layout! Learn more

10-Day Weather Forecast

Advertisements
Track Severe Weather on mobile